createdAt,value
2023-03-08T00:01:58.571Z,96732.90
2023-03-08T00:04:27.968Z,96724.42
2023-03-08T00:07:00.140Z,96722.08
2023-03-08T00:09:29.394Z,96727.35
2023-03-08T00:12:00.574Z,96731.96
2023-03-08T00:14:32.172Z,96734.42
2023-03-08T00:17:03.165Z,96729.46
2023-03-08T00:19:32.623Z,96726.20
2023-03-08T00:22:01.889Z,96728.88
2023-03-08T00:24:31.497Z,96733.27
2023-03-08T00:27:01.121Z,96728.96
2023-03-08T00:29:32.132Z,96732.10
2023-03-08T00:32:02.465Z,96734.73
2023-03-08T00:34:32.305Z,96735.73
2023-03-08T00:37:05.888Z,96732.08
2023-03-08T00:39:36.075Z,96735.52
2023-03-08T00:42:18.385Z,96732.65
2023-03-08T00:44:54.502Z,96726.57
2023-03-08T00:47:23.803Z,96713.71
2023-03-08T00:49:53.022Z,96713.77
2023-03-08T00:52:29.856Z,96714.64
2023-03-08T00:54:59.673Z,96715.81
2023-03-08T00:57:38.979Z,96709.73
2023-03-08T01:00:11.900Z,96702.48
2023-03-08T01:02:42.760Z,96695.60
2023-03-08T01:05:11.852Z,96692.92
2023-03-08T01:07:42.288Z,96689.04
2023-03-08T01:10:12.787Z,96685.21
2023-03-08T01:12:42.998Z,96677.02
2023-03-08T01:15:12.379Z,96674.29
2023-03-08T01:17:45.672Z,96669.05
2023-03-08T01:20:14.811Z,96672.28
2023-03-08T01:22:48.636Z,96674.19
2023-03-08T01:25:20.875Z,96674.68
2023-03-08T01:27:56.288Z,96668.58
2023-03-08T01:30:28.346Z,96657.96
2023-03-08T01:32:57.749Z,96651.11
2023-03-08T01:35:29.904Z,96647.93
2023-03-08T01:37:58.957Z,96648.89
2023-03-08T01:40:28.054Z,96652.45
2023-03-08T01:42:57.746Z,96649.72
2023-03-08T01:46:05.345Z,96645.40
2023-03-08T01:48:41.352Z,96643.09
2023-03-08T01:51:19.438Z,96641.52
2023-03-08T01:53:51.567Z,96645.60
2023-03-08T01:56:22.184Z,96646.30
2023-03-08T01:58:52.687Z,96647.62
2023-03-08T02:01:22.629Z,96648.77
2023-03-08T02:03:52.741Z,96650.08
2023-03-08T02:06:23.649Z,96648.45
2023-03-08T02:08:54.143Z,96658.84
2023-03-08T02:11:25.247Z,96658.59
2023-03-08T02:13:56.496Z,96657.49
2023-03-08T02:16:26.689Z,96659.70
2023-03-08T02:19:00.669Z,96660.96
2023-03-08T02:21:32.860Z,96659.42
2023-03-08T02:24:23.749Z,96657.80
2023-03-08T02:27:01.346Z,96661.90
2023-03-08T02:29:31.601Z,96662.71
2023-03-08T02:32:02.998Z,96663.54
2023-03-08T02:34:34.063Z,96662.80
2023-03-08T02:37:03.613Z,96665.11
2023-03-08T02:39:33.873Z,96660.77
2023-03-08T02:42:04.018Z,96659.84
2023-03-08T02:44:33.312Z,96660.86
2023-03-08T02:47:02.766Z,96667.17
2023-03-08T02:49:32.167Z,96672.57
2023-03-08T02:52:01.729Z,96678.45
2023-03-08T02:54:30.934Z,96682.11
2023-03-08T02:57:02.799Z,96689.89
2023-03-08T02:59:33.314Z,96694.63
2023-03-08T03:02:03.461Z,96693.83
2023-03-08T03:04:34.906Z,96695.07
2023-03-08T03:07:06.622Z,96695.63
2023-03-08T03:09:37.341Z,96703.54
2023-03-08T03:12:07.865Z,96701.47
2023-03-08T03:14:39.379Z,96699.65
2023-03-08T03:17:09.377Z,96708.27
2023-03-08T03:19:39.484Z,96702.56
2023-03-08T03:22:08.741Z,96705.15
2023-03-08T03:24:39.971Z,96708.48
2023-03-08T03:27:09.802Z,96705.81
2023-03-08T03:29:42.725Z,96712.53
2023-03-08T03:32:14.966Z,96711.35
2023-03-08T03:34:44.443Z,96711.67
2023-03-08T03:37:14.825Z,96703.90
2023-03-08T03:39:44.036Z,96710.73
2023-03-08T03:42:16.523Z,96717.40
2023-03-08T03:44:54.102Z,96710.14
2023-03-08T03:47:24.595Z,96707.36
2023-03-08T03:49:57.055Z,96705.47
2023-03-08T03:52:27.868Z,96709.08
2023-03-08T03:55:02.265Z,96709.14
2023-03-08T03:57:32.513Z,96708.59
2023-03-08T04:00:02.217Z,96704.09
2023-03-08T04:02:44.007Z,96713.83
2023-03-08T04:05:16.660Z,96724.99
2023-03-08T04:07:56.866Z,96719.23
2023-03-08T04:10:29.047Z,96725.41
2023-03-08T04:13:00.296Z,96724.08
2023-03-08T04:15:31.425Z,96725.38
2023-03-08T04:18:02.220Z,96727.59
2023-03-08T04:20:32.361Z,96718.36
2023-03-08T04:23:07.213Z,96723.92
2023-03-08T04:25:51.283Z,96719.59
2023-03-08T04:28:24.748Z,96715.36
2023-03-08T04:30:57.435Z,96716.98
2023-03-08T04:33:38.166Z,96716.95
2023-03-08T04:36:08.929Z,96719.46
2023-03-08T04:38:40.872Z,96718.77
2023-03-08T04:41:14.341Z,96711.59
2023-03-08T04:44:04.787Z,96712.95
2023-03-08T04:46:40.890Z,96710.99
2023-03-08T04:49:11.610Z,96707.77
2023-03-08T04:51:45.789Z,96705.88
2023-03-08T04:54:16.528Z,96707.42
2023-03-08T04:56:50.748Z,96705.52
2023-03-08T04:59:22.067Z,96706.21
2023-03-08T05:01:52.498Z,96708.20
2023-03-08T05:04:24.027Z,96707.23
2023-03-08T05:06:54.564Z,96708.82
2023-03-08T05:09:27.526Z,96709.56
2023-03-08T05:11:58.936Z,96705.78
2023-03-08T05:14:35.883Z,96701.58
2023-03-08T05:17:05.687Z,96709.23
2023-03-08T05:19:37.410Z,96717.36
2023-03-08T05:22:09.446Z,96717.18
2023-03-08T05:24:46.612Z,96715.75
2023-03-08T05:27:19.199Z,96724.41
2023-03-08T05:29:48.479Z,96727.23
2023-03-08T05:32:19.156Z,96722.02
2023-03-08T05:34:48.277Z,96730.77
2023-03-08T05:37:27.513Z,96728.90
2023-03-08T05:39:59.940Z,96736.47
2023-03-08T05:42:33.278Z,96744.89
2023-03-08T05:45:03.095Z,96745.65
2023-03-08T05:47:35.684Z,96741.26
2023-03-08T05:50:06.164Z,96746.69
2023-03-08T05:52:37.194Z,96741.27
2023-03-08T05:55:07.398Z,96744.14
2023-03-08T05:57:37.533Z,96744.54
2023-03-08T06:00:09.369Z,96749.89
2023-03-08T06:02:44.839Z,96753.74
2023-03-08T06:05:17.244Z,96752.59
2023-03-08T06:07:47.282Z,96759.63
2023-03-08T06:10:18.402Z,96760.77
2023-03-08T06:12:48.869Z,96762.84
2023-03-08T06:15:22.321Z,96760.57
2023-03-08T06:17:55.610Z,96761.08
2023-03-08T06:20:29.112Z,96764.40
2023-03-08T06:23:04.196Z,96773.06
2023-03-08T06:25:36.097Z,96770.90
2023-03-08T06:28:05.723Z,96773.84
2023-03-08T06:30:42.744Z,96776.42
2023-03-08T06:33:13.994Z,96777.73
2023-03-08T06:35:56.454Z,96782.95
2023-03-08T06:38:29.868Z,96786.97
2023-03-08T06:41:00.548Z,96784.73
2023-03-08T06:43:30.862Z,96785.20
2023-03-08T06:46:05.338Z,96791.05
2023-03-08T06:48:36.373Z,96794.45
2023-03-08T06:51:06.600Z,96790.33
2023-03-08T06:53:38.708Z,96796.64
2023-03-08T06:56:14.952Z,96805.39
2023-03-08T06:58:44.443Z,96805.66
2023-03-08T07:01:14.764Z,96801.11
2023-03-08T07:03:45.819Z,96804.75
2023-03-08T07:06:15.897Z,96807.98
2023-03-08T07:08:48.867Z,96804.50
2023-03-08T07:11:18.308Z,96808.14
2023-03-08T07:13:47.862Z,96813.56
2023-03-08T07:16:17.485Z,96812.33
2023-03-08T07:18:46.839Z,96813.79
2023-03-08T07:21:18.165Z,96812.23
2023-03-08T07:23:56.881Z,96815.52
2023-03-08T07:26:36.697Z,96813.46
2023-03-08T07:29:10.545Z,96815.79
2023-03-08T07:31:45.785Z,96813.40
2023-03-08T07:34:15.755Z,96809.80
2023-03-08T07:36:51.479Z,96811.15
2023-03-08T07:39:23.483Z,96823.91
2023-03-08T07:41:55.970Z,96828.17
2023-03-08T07:44:28.258Z,96822.65
2023-03-08T07:46:57.468Z,96817.75
2023-03-08T07:49:27.813Z,96825.41
2023-03-08T07:51:57.972Z,96829.71
2023-03-08T07:55:33.182Z,96832.14
2023-03-08T07:58:09.478Z,96829.73
2023-03-08T08:00:38.799Z,96823.73
2023-03-08T08:03:08.856Z,96820.27
2023-03-08T08:05:38.796Z,96814.29
2023-03-08T08:08:09.601Z,96814.63
2023-03-08T08:10:42.267Z,96813.48
2023-03-08T08:13:12.548Z,96813.66
2023-03-08T08:15:42.278Z,96809.71
2023-03-08T08:18:11.473Z,96802.63
2023-03-08T08:20:40.544Z,96794.98
2023-03-08T08:23:10.267Z,96793.34
2023-03-08T08:25:41.172Z,96804.30
2023-03-08T08:28:10.338Z,96808.80
2023-03-08T08:30:39.941Z,96810.76
2023-03-08T08:33:09.627Z,96806.11
2023-03-08T08:35:43.566Z,96791.69
2023-03-08T08:38:15.641Z,96797.27
2023-03-08T08:40:45.472Z,96799.90
2023-03-08T08:43:15.171Z,96803.65
2023-03-08T08:45:50.086Z,96812.36
2023-03-08T08:48:19.905Z,96812.22
2023-03-08T08:50:50.011Z,96814.41
2023-03-08T08:53:21.022Z,96817.04
2023-03-08T08:55:50.700Z,96810.70
2023-03-08T08:58:21.630Z,96809.09
2023-03-08T09:00:51.509Z,96808.02
2023-03-08T09:03:21.172Z,96809.04
2023-03-08T09:05:50.337Z,96809.67
2023-03-08T09:08:19.671Z,96806.38
2023-03-08T09:10:49.884Z,96812.96
2023-03-08T09:13:19.326Z,96807.73
2023-03-08T09:15:48.378Z,96805.24
2023-03-08T09:18:17.705Z,96807.17
2023-03-08T09:20:47.152Z,96800.44
2023-03-08T09:23:16.671Z,96801.31
2023-03-08T09:25:46.836Z,96804.09
2023-03-08T09:28:51.608Z,96807.50
2023-03-08T09:31:20.996Z,96806.23
2023-03-08T09:33:52.399Z,96807.23
2023-03-08T09:36:21.891Z,96811.92
2023-03-08T09:38:52.747Z,96809.63
2023-03-08T09:41:43.570Z,96809.38
2023-03-08T09:44:35.435Z,96806.94
2023-03-08T09:47:25.460Z,96801.77
2023-03-08T09:50:03.442Z,96805.10
2023-03-08T09:52:39.097Z,96812.08
2023-03-08T09:55:32.052Z,96811.73
2023-03-08T09:58:17.376Z,96814.36
2023-03-08T10:00:47.917Z,96809.84
2023-03-08T10:03:36.498Z,96808.84
2023-03-08T10:06:35.382Z,96812.83
2023-03-08T10:09:24.689Z,96808.92
2023-03-08T10:12:13.423Z,96814.48
2023-03-08T10:14:50.068Z,96815.05
2023-03-08T10:17:34.508Z,96816.88
2023-03-08T10:20:23.043Z,96821.15
2023-03-08T10:23:02.312Z,96824.59
2023-03-08T10:25:34.521Z,96829.36
2023-03-08T10:28:12.015Z,96831.41
2023-03-08T10:30:49.984Z,96833.27
2023-03-08T10:33:24.811Z,96835.56
2023-03-08T10:36:18.349Z,96831.63
2023-03-08T10:39:04.551Z,96830.66
2023-03-08T10:41:51.985Z,96824.60
2023-03-08T10:44:40.968Z,96828.85
2023-03-08T10:47:27.265Z,96830.48
2023-03-08T10:50:13.695Z,96831.69
2023-03-08T10:52:46.575Z,96840.16
2023-03-08T10:55:20.695Z,96842.61
2023-03-08T10:57:58.289Z,96840.55
2023-03-08T11:00:41.218Z,96835.63
2023-03-08T11:03:24.888Z,96833.55
2023-03-08T11:06:01.513Z,96831.11
2023-03-08T11:08:34.566Z,96834.40
2023-03-08T11:11:05.863Z,96835.17
2023-03-08T11:13:38.904Z,96826.00
2023-03-08T11:16:32.717Z,96828.65
2023-03-08T11:19:23.835Z,96825.69
2023-03-08T11:22:09.723Z,96818.09
2023-03-08T11:25:04.258Z,96816.02
2023-03-08T11:28:08.829Z,96810.14
2023-03-08T11:31:02.107Z,96803.55
2023-03-08T11:33:43.221Z,96798.96
2023-03-08T11:36:25.814Z,96799.41
2023-03-08T11:39:26.732Z,96797.90
2023-03-08T11:42:25.711Z,96788.80
2023-03-08T11:45:22.498Z,96779.58
2023-03-08T11:48:07.126Z,96774.87
2023-03-08T11:51:24.923Z,96769.38
2023-03-08T11:54:17.779Z,96761.52
2023-03-08T11:56:53.380Z,96762.38
2023-03-08T11:59:43.035Z,96760.53
2023-03-08T12:02:30.888Z,96766.67
2023-03-08T12:05:18.840Z,96762.45
2023-03-08T12:08:43.342Z,96761.92
2023-03-08T12:11:25.406Z,96768.70
2023-03-08T12:14:07.026Z,96767.84
2023-03-08T12:17:22.655Z,96765.64
2023-03-08T12:19:53.924Z,96763.98
2023-03-08T12:22:42.736Z,96763.28
2023-03-08T12:25:26.266Z,96764.58
2023-03-08T12:28:13.733Z,96766.23
2023-03-08T12:31:24.841Z,96766.20
2023-03-08T12:34:28.538Z,96762.41
2023-03-08T12:37:22.456Z,96765.14
2023-03-08T12:40:09.301Z,96761.40
2023-03-08T12:42:42.058Z,96766.48
2023-03-08T12:45:20.299Z,96766.65
2023-03-08T12:48:18.055Z,96766.99
2023-03-08T12:51:13.945Z,96772.40
2023-03-08T12:53:57.314Z,96771.96
2023-03-08T12:56:54.042Z,96765.53
2023-03-08T12:59:31.970Z,96760.46
2023-03-08T13:02:23.750Z,96759.94
2023-03-08T13:05:33.176Z,96766.61
2023-03-08T13:08:19.693Z,96771.57
2023-03-08T13:11:30.740Z,96770.45
2023-03-08T13:14:43.618Z,96774.48
2023-03-08T13:17:50.506Z,96774.30
2023-03-08T13:21:07.382Z,96775.29
2023-03-08T13:24:15.738Z,96781.18
2023-03-08T13:27:12.721Z,96781.86
2023-03-08T13:29:47.250Z,96781.94
2023-03-08T13:32:21.167Z,96771.64
2023-03-08T13:35:04.324Z,96766.42
2023-03-08T13:37:40.798Z,96766.23
2023-03-08T13:40:26.270Z,96767.30
2023-03-08T13:43:09.168Z,96771.90
2023-03-08T13:45:55.086Z,96778.10
2023-03-08T13:48:42.357Z,96780.48
2023-03-08T13:51:19.740Z,96775.38
2023-03-08T13:54:04.484Z,96782.88
2023-03-08T13:56:40.178Z,96787.44
2023-03-08T13:59:23.279Z,96782.67
2023-03-08T14:02:11.935Z,96780.80
2023-03-08T14:05:05.200Z,96783.28
2023-03-08T14:07:58.993Z,96782.72
2023-03-08T14:10:42.793Z,96773.12
2023-03-08T14:13:29.657Z,96768.07
2023-03-08T14:16:05.705Z,96771.06
2023-03-08T14:18:43.854Z,96769.29
2023-03-08T14:21:25.978Z,96768.94
2023-03-08T14:23:59.494Z,96774.62
2023-03-08T14:26:39.349Z,96774.95
2023-03-08T14:29:37.838Z,96773.55
2023-03-08T14:32:19.199Z,96770.23
2023-03-08T14:34:58.706Z,96770.21
2023-03-08T14:38:00.796Z,96759.81
2023-03-08T14:40:32.206Z,96759.15
2023-03-08T14:43:26.747Z,96759.28
2023-03-08T14:46:04.493Z,96757.12
2023-03-08T14:48:52.340Z,96753.88
2023-03-08T14:51:53.536Z,96755.83
2023-03-08T14:54:36.730Z,96763.45
2023-03-08T14:57:30.458Z,96761.83
2023-03-08T15:00:18.677Z,96763.66
2023-03-08T15:02:52.840Z,96764.95
2023-03-08T15:05:29.077Z,96752.30
2023-03-08T15:08:03.578Z,96751.18
2023-03-08T15:10:37.999Z,96752.96
2023-03-08T15:13:17.690Z,96756.03
2023-03-08T15:15:51.084Z,96757.09
2023-03-08T15:18:21.426Z,96752.73
2023-03-08T15:20:53.117Z,96751.80
2023-03-08T15:23:26.784Z,96751.42
2023-03-08T15:25:58.456Z,96748.91
2023-03-08T15:28:27.631Z,96749.59
2023-03-08T15:30:56.845Z,96749.11
2023-03-08T15:33:29.187Z,96748.61
2023-03-08T15:35:59.239Z,96752.69
2023-03-08T15:38:29.222Z,96752.81
2023-03-08T15:41:02.957Z,96755.05
2023-03-08T15:43:47.770Z,96755.52
2023-03-08T15:46:20.213Z,96760.37
2023-03-08T15:48:51.532Z,96761.23
2023-03-08T15:51:28.553Z,96765.64
2023-03-08T15:54:02.431Z,96769.95
2023-03-08T15:56:32.140Z,96774.33
2023-03-08T15:59:02.660Z,96783.68
2023-03-08T16:01:40.663Z,96787.65
2023-03-08T16:04:12.602Z,96789.65
2023-03-08T16:06:44.142Z,96793.59
2023-03-08T16:09:18.117Z,96799.03
2023-03-08T16:11:49.326Z,96806.85
2023-03-08T16:14:19.115Z,96812.26
2023-03-08T16:16:49.117Z,96815.13
2023-03-08T16:19:18.462Z,96822.70
2023-03-08T16:21:50.664Z,96823.06
2023-03-08T16:24:20.338Z,96825.76
2023-03-08T16:26:54.784Z,96825.27
2023-03-08T16:29:26.990Z,96831.23
2023-03-08T16:32:01.307Z,96830.45
2023-03-08T16:34:30.847Z,96833.80
2023-03-08T16:37:00.012Z,96835.30
2023-03-08T16:39:30.373Z,96832.15
2023-03-08T16:42:00.399Z,96829.48
2023-03-08T16:44:35.623Z,96828.48
2023-03-08T16:47:05.537Z,96822.81
2023-03-08T16:49:37.012Z,96813.98
2023-03-08T16:52:06.335Z,96805.55
2023-03-08T16:54:36.494Z,96808.81
2023-03-08T16:57:18.280Z,96805.10
2023-03-08T16:59:53.994Z,96800.19
2023-03-08T17:02:26.181Z,96804.11
2023-03-08T17:05:02.681Z,96799.54
2023-03-08T17:07:47.461Z,96797.11
2023-03-08T17:10:29.558Z,96800.90
2023-03-08T17:13:02.435Z,96803.07
2023-03-08T17:15:43.119Z,96805.71
2023-03-08T17:18:15.578Z,96796.54
2023-03-08T17:20:49.011Z,96803.50
2023-03-08T17:23:28.574Z,96811.72
2023-03-08T17:26:09.486Z,96808.70
2023-03-08T17:28:51.379Z,96816.90
2023-03-08T17:31:29.091Z,96824.64
2023-03-08T17:34:16.403Z,96825.61
2023-03-08T17:36:57.107Z,96829.34
2023-03-08T17:39:53.306Z,96827.77
2023-03-08T17:45:31.610Z,96819.91
2023-03-08T17:48:04.472Z,96820.57
2023-03-08T17:50:35.064Z,96816.73
2023-03-08T17:53:04.775Z,96821.21
2023-03-08T17:55:34.158Z,96821.33
2023-03-08T17:58:06.665Z,96818.17
2023-03-08T18:00:36.436Z,96816.51
2023-03-08T18:03:06.771Z,96819.28
2023-03-08T18:05:36.679Z,96812.80
2023-03-08T18:08:08.864Z,96811.14
2023-03-08T18:10:39.038Z,96804.27
2023-03-08T18:13:08.988Z,96802.20
2023-03-08T18:15:38.614Z,96807.71
2023-03-08T18:18:08.716Z,96803.70
2023-03-08T18:20:37.983Z,96799.17
2023-03-08T18:23:09.879Z,96804.59
2023-03-08T18:25:39.204Z,96802.67
2023-03-08T18:28:09.070Z,96798.29
2023-03-08T18:30:39.880Z,96789.61
2023-03-08T18:33:09.236Z,96795.77
2023-03-08T18:35:38.489Z,96796.18
2023-03-08T18:38:08.663Z,96790.90
2023-03-08T18:40:37.991Z,96794.17
2023-03-08T18:43:08.511Z,96793.30
2023-03-08T18:45:37.715Z,96792.03
2023-03-08T18:48:07.088Z,96790.83
2023-03-08T18:51:02.216Z,96787.68
2023-03-08T18:53:40.610Z,96781.84
2023-03-08T18:56:11.838Z,96784.86
2023-03-08T18:58:41.364Z,96784.92
2023-03-08T19:01:31.961Z,96789.73
2023-03-08T19:04:08.412Z,96791.90
2023-03-08T19:06:41.593Z,96796.61
2023-03-08T19:09:18.021Z,96795.64
2023-03-08T19:12:12.430Z,96797.39
2023-03-08T19:14:41.498Z,96794.95
2023-03-08T19:17:11.235Z,96791.27
2023-03-08T19:19:59.573Z,96794.42
2023-03-08T19:22:28.943Z,96791.56
2023-03-08T19:24:58.274Z,96789.35
2023-03-08T19:27:29.541Z,96793.37
2023-03-08T19:29:59.600Z,96786.32
2023-03-08T19:32:30.816Z,96791.06
2023-03-08T19:35:00.087Z,96791.70
2023-03-08T19:37:33.697Z,96791.35
2023-03-08T19:40:05.916Z,96773.31
2023-03-08T19:42:36.753Z,96782.04
2023-03-08T19:45:09.160Z,96778.83
2023-03-08T19:47:39.588Z,96779.64
2023-03-08T19:50:13.522Z,96778.20
2023-03-08T19:52:42.838Z,96773.68
2023-03-08T19:55:14.863Z,96779.27
2023-03-08T19:57:46.583Z,96785.07
2023-03-08T20:00:18.500Z,96784.19
2023-03-08T20:02:49.285Z,96777.98
2023-03-08T20:05:18.989Z,96774.61
2023-03-08T20:07:49.803Z,96782.41
2023-03-08T20:10:19.582Z,96780.74
2023-03-08T20:12:52.969Z,96779.75
2023-03-08T20:15:24.459Z,96786.21
2023-03-08T20:17:56.195Z,96781.41
2023-03-08T20:20:25.498Z,96782.80
2023-03-08T20:22:56.327Z,96775.02
2023-03-08T20:25:30.970Z,96770.68
2023-03-08T20:28:01.076Z,96762.08
2023-03-08T20:30:38.422Z,96762.16
2023-03-08T20:33:12.955Z,96757.60
2023-03-08T20:35:49.615Z,96752.98
2023-03-08T20:38:22.308Z,96748.44
2023-03-08T20:41:02.668Z,96749.45
2023-03-08T20:43:37.108Z,96743.98
2023-03-08T20:46:13.417Z,96738.05
2023-03-08T20:48:57.609Z,96737.52
2023-03-08T20:51:30.726Z,96732.73
2023-03-08T20:54:01.809Z,96730.56
2023-03-08T20:56:30.929Z,96726.56
2023-03-08T20:59:01.577Z,96721.94
2023-03-08T21:01:33.823Z,96719.92
2023-03-08T21:04:03.461Z,96715.70
2023-03-08T21:06:34.534Z,96713.55
2023-03-08T21:09:04.767Z,96705.86
2023-03-08T21:11:34.546Z,96699.89
2023-03-08T21:14:04.227Z,96702.48
2023-03-08T21:16:33.861Z,96702.33
2023-03-08T21:19:04.835Z,96688.29
2023-03-08T21:21:41.586Z,96688.33
2023-03-08T21:24:15.282Z,96688.98
2023-03-08T21:26:48.520Z,96688.98
2023-03-08T21:29:22.732Z,96689.61
2023-03-08T21:31:54.475Z,96691.13
2023-03-08T21:34:23.803Z,96685.85
2023-03-08T21:36:54.402Z,96685.61
2023-03-08T21:39:26.952Z,96682.51
2023-03-08T21:41:58.950Z,96675.37
2023-03-08T21:44:31.585Z,96672.76
2023-03-08T21:47:01.409Z,96668.61
2023-03-08T21:49:32.570Z,96665.27
2023-03-08T21:52:04.988Z,96659.90
2023-03-08T21:54:34.382Z,96658.98
2023-03-08T21:57:04.472Z,96656.27
2023-03-08T21:59:33.510Z,96659.52
2023-03-08T22:02:02.777Z,96654.33
2023-03-08T22:04:34.213Z,96649.14
2023-03-08T22:07:04.476Z,96647.26
2023-03-08T22:09:35.415Z,96642.08
2023-03-08T22:12:04.761Z,96633.70
2023-03-08T22:14:34.781Z,96632.85
2023-03-08T22:17:05.020Z,96626.46
2023-03-08T22:19:35.835Z,96626.86
2023-03-08T22:22:05.562Z,96621.34
2023-03-08T22:24:35.479Z,96619.73
2023-03-08T22:27:05.709Z,96619.81
2023-03-08T22:29:35.014Z,96615.41
2023-03-08T22:32:08.877Z,96622.81
2023-03-08T22:34:38.133Z,96631.40
2023-03-08T22:37:09.483Z,96626.64
2023-03-08T22:39:39.661Z,96626.17
2023-03-08T22:42:10.164Z,96627.89
2023-03-08T22:44:40.745Z,96632.60
2023-03-08T22:47:09.903Z,96629.89
2023-03-08T22:49:39.836Z,96627.58
2023-03-08T22:52:10.063Z,96628.09
2023-03-08T22:54:39.188Z,96620.55
2023-03-08T22:57:08.946Z,96621.23
2023-03-08T22:59:39.111Z,96619.06
2023-03-08T23:02:11.001Z,96614.84
2023-03-08T23:04:42.303Z,96612.36
2023-03-08T23:07:12.425Z,96606.42
2023-03-08T23:09:41.725Z,96603.90
2023-03-08T23:12:12.380Z,96603.17
2023-03-08T23:14:45.363Z,96602.14
2023-03-08T23:17:15.650Z,96602.89
2023-03-08T23:19:45.491Z,96604.66
2023-03-08T23:22:17.363Z,96599.92
2023-03-08T23:24:49.618Z,96602.74
2023-03-08T23:27:18.961Z,96599.89
2023-03-08T23:29:53.362Z,96606.29
2023-03-08T23:32:23.199Z,96603.08
2023-03-08T23:34:52.349Z,96604.02
2023-03-08T23:37:21.463Z,96596.76
2023-03-08T23:39:50.682Z,96601.95
2023-03-08T23:42:20.836Z,96595.10
2023-03-08T23:44:52.840Z,96595.05
2023-03-08T23:47:22.688Z,96590.63
2023-03-08T23:49:52.176Z,96594.66
2023-03-08T23:52:25.192Z,96592.89
2023-03-08T23:54:54.942Z,96598.75
2023-03-08T23:57:23.936Z,96598.73
2023-03-08T23:59:54.477Z,96599.66
